Terminal Aerodrome Forecast
Issued by NWS

Home | Current Version | Previous Version | Text Only | Print | Product List | Glossary On
Versions: 1 2 3 4 5 6 7 8 9 10 11 12 13 14 15 16 17 18 19 20 21 22 23 24 25 26
000
FTUS44 KOUN 280535
TAFGAG
TAF
KGAG 280535Z 2806/2906 17016G23KT P6SM -TSRA SCT080CB BKN120
      TEMPO 2806/2809 4SM -TSRA SCT050 OVC080CB
     FM281000 20011KT P6SM BKN080 BKN150
      TEMPO 2814/2818 4SM -TSRA BKN050CB
     FM281800 16011KT P6SM SCT050 BKN100
     FM290100 14008KT P6SM SCT120 SCT250=

USA.gov is the U.S. government's official web portal to all federal, state and local government web resources and services.